Time;durP1;ratioP1;P1;durP2;ratioP2;P2;SDS_P1;SDS_P2;PMS_P1;PMS_P2;Temp;Humidity;BMP_temperature;BMP_pressure;BME280_temperature;BME280_humidity;BME280_pressure;Samples;Min_cycle;Max_cycle;Signal;HPM_P1;HPM_P2
2023/01/12 00:01:26;;;;;;;32.17;19.52;;;6.20;78.30;;;;;;5075106;28;20073;-14
2023/01/12 00:03:54;;;;;;;32.90;19.17;;;6.20;78.20;;;;;;5075515;28;20074;-15
2023/01/12 00:06:21;;;;;;;28.90;15.85;;;5.90;78.50;;;;;;5075343;28;20400;-14
2023/01/12 00:08:48;;;;;;;21.95;11.77;;;5.70;80.10;;;;;;5075319;28;20024;-13
2023/01/12 00:11:15;;;;;;;17.88;10.07;;;5.60;80.40;;;;;;5075674;28;20021;-14
2023/01/12 00:13:41;;;;;;;13.40;7.68;;;5.50;80.70;;;;;;5075548;28;20052;-14
2023/01/12 00:18:58;;;;;;;16.05;8.10;;;5.60;80.50;;;;;;5074846;28;20047;-13
2023/01/12 00:21:25;;;;;;;17.80;8.75;;;5.60;80.60;;;;;;5073801;28;20041;-14
2023/01/12 00:23:51;;;;;;;15.48;8.63;;;5.60;80.50;;;;;;5074741;28;20025;-14
2023/01/12 00:26:16;;;;;;;13.20;7.60;;;5.60;80.10;;;;;;5075293;28;20028;-13
2023/01/12 00:28:42;;;;;;;14.20;7.63;;;5.60;80.00;;;;;;5074811;28;20032;-13
2023/01/12 00:31:10;;;;;;;12.25;7.07;;;5.60;79.80;;;;;;5074517;28;20082;-13
2023/01/12 00:33:37;;;;;;;12.40;7.13;;;5.60;79.90;;;;;;5074898;28;20100;-14
2023/01/12 00:36:09;;;;;;;15.48;8.07;;;5.50;79.50;;;;;;5075026;28;20492;-14
2023/01/12 00:38:35;;;;;;;15.48;8.20;;;5.60;79.60;;;;;;5074483;28;20115;-13
2023/01/12 00:41:09;;;;;;;12.27;7.50;;;5.60;79.60;;;;;;5074168;28;20025;-14
2023/01/12 00:46:29;;;;;;;17.25;8.57;;;5.50;79.80;;;;;;5074958;28;20043;-13
2023/01/12 00:48:55;;;;;;;15.40;8.98;;;5.60;80.10;;;;;;5074615;28;20056;-13
2023/01/12 00:51:21;;;;;;;15.52;8.43;;;5.50;80.10;;;;;;5074224;28;20461;-13
2023/01/12 00:53:46;;;;;;;14.18;8.57;;;5.50;80.00;;;;;;5074140;28;20047;-13
2023/01/12 00:56:12;;;;;;;13.02;8.27;;;5.50;80.00;;;;;;5074522;28;20111;-13
2023/01/12 00:58:38;;;;;;;17.52;9.18;;;5.40;80.00;;;;;;5074319;28;20082;-13
2023/01/12 01:01:07;;;;;;;14.15;8.73;;;5.50;80.10;;;;;;5072737;28;20043;-13
2023/01/12 01:03:34;;;;;;;17.23;8.95;;;5.50;80.00;;;;;;5074257;28;20028;-12
2023/01/12 01:06:06;;;;;;;16.80;9.68;;;5.50;80.10;;;;;;5074646;28;20051;-12
2023/01/12 01:08:36;;;;;;;16.98;9.48;;;5.50;80.10;;;;;;5074208;28;20105;-12
2023/01/12 01:11:03;;;;;;;16.75;9.73;;;5.50;80.10;;;;;;5073670;28;20507;-13
2023/01/12 01:13:29;;;;;;;17.88;10.68;;;5.50;80.00;;;;;;5073969;28;20060;-14
2023/01/12 01:16:00;;;;;;;15.73;9.35;;;5.50;80.00;;;;;;5073847;28;20451;-13
2023/01/12 01:18:27;;;;;;;17.20;9.75;;;5.50;80.00;;;;;;5073817;28;20055;-13
2023/01/12 01:20:53;;;;;;;17.20;9.68;;;5.60;80.00;;;;;;5073409;28;20072;-13
2023/01/12 01:23:19;;;;;;;15.88;8.45;;;5.60;79.80;;;;;;5073576;28;20029;-14
2023/01/12 01:25:45;;;;;;;15.10;8.60;;;5.60;79.70;;;;;;5074063;28;20024;-13
2023/01/12 01:28:11;;;;;;;15.85;8.25;;;5.60;79.70;;;;;;5073669;28;20070;-15
2023/01/12 01:30:38;;;;;;;14.52;8.23;;;5.70;79.50;;;;;;5073894;28;20023;-13
2023/01/12 01:33:04;;;;;;;14.07;7.95;;;5.70;79.50;;;;;;5073180;28;20017;-13
2023/01/12 01:35:30;;;;;;;13.35;7.45;;;5.70;79.30;;;;;;5073423;28;20024;-13
2023/01/12 01:37:56;;;;;;;12.55;7.32;;;5.70;79.30;;;;;;5073904;28;20033;-14
2023/01/12 01:40:22;;;;;;;13.15;7.43;;;5.70;79.20;;;;;;5073228;28;20430;-13
2023/01/12 01:42:48;;;;;;;10.38;6.10;;;5.80;79.20;;;;;;5073115;28;20119;-14
2023/01/12 01:45:15;;;;;;;11.73;6.15;;;5.80;79.10;;;;;;5073385;28;20020;-14
2023/01/12 01:47:48;;;;;;;12.20;6.40;;;5.90;79.10;;;;;;5073176;28;20433;-14
2023/01/12 01:50:23;;;;;;;12.77;6.90;;;5.90;79.10;;;;;;5073135;28;20496;-13
2023/01/12 01:52:55;;;;;;;11.13;6.60;;;5.90;79.00;;;;;;5073009;28;20078;-14
2023/01/12 01:55:24;;;;;;;14.70;7.05;;;5.90;79.00;;;;;;5073597;28;20370;-14
2023/01/12 01:58:01;;;;;;;11.20;6.55;;;5.80;78.90;;;;;;5072972;28;20095;-14
2023/01/12 02:00:28;;;;;;;12.77;7.47;;;5.80;78.90;;;;;;5072923;28;20054;-14
2023/01/12 02:02:55;;;;;;;13.10;7.15;;;5.80;79.00;;;;;;5072535;28;20024;-13
2023/01/12 02:05:25;;;;;;;15.48;7.38;;;5.70;79.00;;;;;;5073109;28;20047;-15
2023/01/12 02:07:52;;;;;;;15.05;7.63;;;5.70;79.00;;;;;;5071572;28;20380;-14
2023/01/12 02:10:19;;;;;;;11.35;6.20;;;5.70;79.00;;;;;;5073197;28;20025;-13
2023/01/12 02:19:08;;;;;;;10.82;6.90;;;5.40;79.10;;;;;;5073040;28;20182;-13
2023/01/12 02:22:16;;;;;;;12.15;7.07;;;5.30;79.30;;;;;;5072614;28;20040;-12
2023/01/12 02:25:13;;;;;;;11.40;6.70;;;5.20;79.60;;;;;;5072614;28;20392;-13
2023/01/12 02:28:12;;;;;;;11.18;6.45;;;5.10;79.70;;;;;;5073104;28;20020;-13
2023/01/12 02:30:57;;;;;;;12.98;6.63;;;5.00;79.80;;;;;;5072881;28;20036;-14
2023/01/12 02:33:57;;;;;;;10.98;6.28;;;5.00;80.00;;;;;;5072449;28;20024;-13
2023/01/12 02:36:42;;;;;;;11.60;6.40;;;4.90;79.90;;;;;;5072797;28;20178;-14
2023/01/12 02:39:16;;;;;;;10.45;6.10;;;4.90;80.00;;;;;;5072643;28;20033;-15
2023/01/12 02:45:02;;;;;;;10.55;6.15;;;4.90;80.40;;;;;;5071988;28;20075;-13
2023/01/12 02:47:43;;;;;;;12.50;6.50;;;4.90;80.10;;;;;;5072742;28;20426;-11
2023/01/12 02:50:14;;;;;;;12.57;6.78;;;4.90;80.00;;;;;;5072831;28;20392;-11
2023/01/12 02:52:45;;;;;;;11.73;6.80;;;5.00;79.80;;;;;;5072698;28;20036;-10
2023/01/12 02:55:13;;;;;;;9.65;5.70;;;4.90;79.80;;;;;;5072477;28;20118;-12
2023/01/12 02:57:39;;;;;;;11.88;6.32;;;4.90;79.80;;;;;;5072618;28;20028;-12
2023/01/12 03:00:07;;;;;;;12.15;6.07;;;4.90;79.80;;;;;;5072329;28;20067;-11
2023/01/12 03:02:34;;;;;;;12.55;6.15;;;4.80;79.80;;;;;;5072844;28;20021;-12
2023/01/12 03:05:00;;;;;;;13.65;6.35;;;4.80;79.90;;;;;;5072320;28;20036;-12
2023/01/12 03:07:32;;;;;;;11.50;6.30;;;4.80;79.90;;;;;;5072170;28;20028;-12
2023/01/12 03:10:22;;;;;;;10.90;6.20;;;4.70;79.90;;;;;;5072039;28;20036;-12
2023/01/12 03:12:50;;;;;;;9.10;5.05;;;4.60;79.90;;;;;;5072362;28;20024;-12
2023/01/12 03:15:18;;;;;;;9.73;5.43;;;4.60;79.90;;;;;;5071903;28;20086;-12
2023/01/12 03:18:02;;;;;;;9.57;5.32;;;4.60;79.90;;;;;;5072382;28;20032;-11
2023/01/12 03:20:37;;;;;;;9.30;5.18;;;4.50;79.90;;;;;;5071820;28;20139;-11
2023/01/12 03:23:11;;;;;;;11.50;6.07;;;4.40;79.80;;;;;;5072017;28;20112;-13
2023/01/12 03:25:38;;;;;;;;;;;4.40;79.90;;;;;;5072686;28;20044;-11
2023/01/12 03:28:07;;;;;;;9.15;5.50;;;4.30;80.10;;;;;;5072238;28;19946;-11
2023/01/12 03:30:39;;;;;;;10.60;5.63;;;4.30;80.20;;;;;;5072135;28;20021;-12
2023/01/12 03:33:06;;;;;;;10.02;5.90;;;4.20;80.30;;;;;;5072123;28;20104;-11
2023/01/12 03:35:39;;;;;;;9.65;5.65;;;4.10;80.20;;;;;;5072305;28;20023;-11
2023/01/12 03:38:27;;;;;;;10.52;6.10;;;4.10;80.20;;;;;;5072165;28;20085;-13
2023/01/12 03:41:20;;;;;;;9.38;5.43;;;4.00;80.20;;;;;;5072000;28;20025;-11
2023/01/12 03:43:52;;;;;;;9.65;6.03;;;3.90;80.30;;;;;;5072055;28;20078;-12
2023/01/12 03:46:28;;;;;;;10.48;5.28;;;3.90;80.40;;;;;;5072166;28;20052;-11
2023/01/12 03:49:20;;;;;;;11.63;6.28;;;3.80;80.40;;;;;;5071532;28;20075;-12
2023/01/12 03:51:49;;;;;;;11.50;6.47;;;3.90;80.60;;;;;;5067670;28;20078;-12
2023/01/12 03:54:17;;;;;;;14.57;6.45;;;3.90;80.60;;;;;;5071876;28;20051;-13
2023/01/12 03:56:45;;;;;;;10.38;5.80;;;3.90;80.50;;;;;;5072072;28;20039;-12
2023/01/12 03:59:13;;;;;;;11.15;6.32;;;3.80;80.50;;;;;;5074909;28;20435;-13
2023/01/12 04:01:40;;;;;;;10.52;5.78;;;3.80;80.50;;;;;;5075101;28;20037;-12
2023/01/12 04:04:06;;;;;;;10.00;5.88;;;3.80;80.40;;;;;;5075119;28;20036;-13
2023/01/12 04:06:32;;;;;;;9.77;5.55;;;3.70;80.40;;;;;;5074978;28;20024;-12
2023/01/12 04:08:58;;;;;;;14.25;7.72;;;3.70;80.40;;;;;;5074818;28;20086;-13
2023/01/12 04:14:09;;;;;;;15.40;7.75;;;3.50;80.40;;;;;;5074984;28;20043;-12
2023/01/12 04:16:34;;;;;;;11.40;6.18;;;3.40;80.40;;;;;;5075195;28;20383;-12
2023/01/12 04:19:00;;;;;;;11.45;6.75;;;3.30;80.60;;;;;;5074969;28;20024;-13
2023/01/12 04:24:11;;;;;;;10.27;5.57;;;3.20;80.90;;;;;;5075185;28;20055;-12
2023/01/12 04:26:37;;;;;;;11.48;7.10;;;3.20;81.10;;;;;;5074822;28;20024;-12
2023/01/12 04:29:03;;;;;;;9.55;5.55;;;3.20;81.10;;;;;;5074353;28;20035;-12
2023/01/12 04:31:29;;;;;;;10.00;5.70;;;3.10;81.10;;;;;;5074941;28;20095;-12
2023/01/12 04:33:55;;;;;;;9.32;5.40;;;3.10;81.00;;;;;;5075014;28;20116;-13
2023/01/12 04:36:21;;;;;;;10.55;6.03;;;3.10;81.20;;;;;;5074892;28;20431;-13
2023/01/12 04:38:47;;;;;;;10.82;5.97;;;3.00;81.20;;;;;;5074753;28;20429;-11
2023/01/12 04:41:12;;;;;;;10.45;6.63;;;3.00;81.10;;;;;;5073168;28;20037;-13
2023/01/12 04:43:38;;;;;;;8.60;5.65;;;2.90;81.20;;;;;;5074924;28;20024;-13
2023/01/12 04:46:09;;;;;;;10.27;5.50;;;2.80;81.20;;;;;;5074512;28;20029;-12
2023/01/12 04:48:37;;;;;;;10.73;6.38;;;2.80;81.10;;;;;;5074631;28;20063;-13
2023/01/12 04:51:04;;;;;;;10.98;6.22;;;2.80;81.20;;;;;;5074245;28;20500;-13
2023/01/12 04:53:30;;;;;;;10.63;6.07;;;2.70;81.30;;;;;;5074138;28;20021;-12
2023/01/12 04:55:56;;;;;;;9.18;5.53;;;2.70;81.30;;;;;;5074335;28;20032;-12
2023/01/12 04:58:23;;;;;;;8.82;4.97;;;2.60;81.30;;;;;;5074007;28;20435;-13
2023/01/12 05:00:49;;;;;;;11.32;5.53;;;2.60;81.40;;;;;;5074306;28;20040;-13
2023/01/12 05:03:15;;;;;;;11.25;6.35;;;2.50;81.50;;;;;;5073764;28;20064;-13
2023/01/12 05:05:41;;;;;;;8.80;5.78;;;2.50;81.60;;;;;;5074284;28;20445;-13
2023/01/12 05:10:55;;;;;;;14.68;8.18;;;2.40;81.70;;;;;;5074088;28;20035;-12
2023/01/12 05:13:25;;;;;;;12.90;7.50;;;2.40;81.90;;;;;;5074222;28;20128;-12
2023/01/12 05:15:51;;;;;;;15.02;9.18;;;2.40;81.70;;;;;;5074200;28;20045;-12
2023/01/12 05:18:17;;;;;;;15.13;9.70;;;2.40;81.80;;;;;;5073699;28;20465;-12
2023/01/12 05:20:43;;;;;;;18.60;10.60;;;2.30;81.90;;;;;;5073429;28;20048;-12
2023/01/12 05:23:09;;;;;;;19.83;10.52;;;2.40;82.10;;;;;;5073306;28;20068;-11
2023/01/12 05:25:35;;;;;;;18.42;11.18;;;2.40;81.90;;;;;;5073516;28;20052;-12
2023/01/12 05:28:00;;;;;;;20.58;12.27;;;2.50;82.00;;;;;;5073891;28;20025;-13
2023/01/12 05:30:27;;;;;;;19.42;12.40;;;2.50;82.10;;;;;;5073432;28;20027;-13
2023/01/12 05:32:54;;;;;;;20.85;11.85;;;2.50;82.00;;;;;;5073423;28;20017;-14
2023/01/12 05:35:20;;;;;;;18.85;11.35;;;2.50;82.00;;;;;;5073326;28;20472;-12
2023/01/12 05:37:46;;;;;;;21.50;11.65;;;2.60;82.10;;;;;;5073790;28;20081;-13
2023/01/12 05:40:12;;;;;;;18.92;12.40;;;2.60;82.10;;;;;;5073235;28;20050;-12
2023/01/12 05:45:22;;;;;;;20.27;11.30;;;2.70;82.10;;;;;;5073623;28;20066;-13
2023/01/12 05:48:00;;;;;;;18.35;11.93;;;2.80;82.20;;;;;;5073411;28;20025;-11
2023/01/12 05:50:27;;;;;;;23.10;12.00;;;2.90;82.20;;;;;;5074001;28;20050;-13
2023/01/12 05:52:53;;;;;;;22.98;11.93;;;2.90;82.10;;;;;;5072860;28;20479;-12
2023/01/12 05:55:19;;;;;;;20.63;11.98;;;3.00;82.20;;;;;;5073348;28;20115;-12
2023/01/12 05:57:45;;;;;;;19.55;11.45;;;3.10;82.00;;;;;;5073142;28;20178;-11
2023/01/12 06:00:11;;;;;;;19.23;10.60;;;3.10;82.00;;;;;;5072829;28;20433;-11
2023/01/12 06:02:37;;;;;;;18.95;10.35;;;3.10;82.10;;;;;;5073477;28;20032;-12
2023/01/12 06:05:07;;;;;;;18.42;10.45;;;3.20;82.20;;;;;;5072903;28;20028;-11
2023/01/12 06:07:33;;;;;;;16.75;9.82;;;3.10;81.70;;;;;;5072953;28;20024;-12
2023/01/12 06:09:59;;;;;;;19.00;10.23;;;3.10;81.60;;;;;;5072984;28;20393;-11
2023/01/12 06:15:10;;;;;;;16.10;9.55;;;3.00;81.60;;;;;;5072583;28;20471;-12
2023/01/12 06:17:36;;;;;;;19.63;11.00;;;2.90;81.60;;;;;;5072783;28;20120;-12
2023/01/12 06:20:01;;;;;;;17.63;9.90;;;2.90;81.70;;;;;;5071896;28;20036;-12
2023/01/12 06:22:27;;;;;;;18.02;10.05;;;2.90;81.70;;;;;;5071539;28;20097;-12
2023/01/12 06:24:53;;;;;;;22.25;10.45;;;2.90;81.70;;;;;;5072918;28;20392;-13
2023/01/12 06:27:19;;;;;;;19.65;11.60;;;2.80;81.80;;;;;;5071374;28;20024;-13
2023/01/12 06:29:46;;;;;;;20.35;10.65;;;2.90;81.90;;;;;;5072630;28;20020;-12
2023/01/12 06:32:11;;;;;;;21.73;11.13;;;2.80;81.90;;;;;;5072678;28;20024;-13
2023/01/12 06:34:37;;;;;;;17.42;10.82;;;2.80;81.90;;;;;;5072675;28;20112;-12
2023/01/12 06:37:06;;;;;;;17.50;9.63;;;2.70;82.00;;;;;;5072445;28;20029;-13
2023/01/12 06:39:32;;;;;;;15.40;9.27;;;2.70;82.10;;;;;;5072532;28;20024;-12
2023/01/12 06:44:43;;;;;;;18.42;10.73;;;2.60;82.10;;;;;;5072570;28;20031;-12
2023/01/12 06:47:09;;;;;;;23.23;12.88;;;2.50;82.00;;;;;;5072543;28;20078;-12
2023/01/12 06:49:35;;;;;;;17.67;10.98;;;2.40;82.00;;;;;;5054388;28;20025;-12
2023/01/12 06:52:01;;;;;;;13.88;9.18;;;2.40;82.00;;;;;;5072641;28;20526;-12
2023/01/12 06:54:27;;;;;;;19.23;10.70;;;2.30;82.10;;;;;;5071360;28;20063;-13
2023/01/12 06:56:54;;;;;;;16.15;9.82;;;2.20;82.30;;;;;;5072642;28;20425;-12
2023/01/12 06:59:20;;;;;;;21.17;11.13;;;2.30;82.60;;;;;;5072383;28;20085;-12
2023/01/12 07:01:46;;;;;;;21.17;13.65;;;2.30;82.50;;;;;;5072094;28;20083;-13
2023/01/12 07:04:12;;;;;;;25.15;13.70;;;2.20;82.50;;;;;;5072153;28;20044;-12
2023/01/12 07:06:38;;;;;;;24.30;14.43;;;2.20;82.50;;;;;;5071443;28;20029;-12
2023/01/12 07:09:05;;;;;;;26.02;13.27;;;2.20;82.60;;;;;;5071983;28;20036;-12
2023/01/12 07:11:31;;;;;;;26.95;15.48;;;2.20;82.60;;;;;;5072250;28;20484;-12
2023/01/12 07:13:56;;;;;;;27.60;16.52;;;2.20;82.70;;;;;;5072185;28;20024;-12
2023/01/12 07:16:23;;;;;;;31.67;17.48;;;2.20;82.80;;;;;;5072338;28;20434;-12
2023/01/12 07:18:48;;;;;;;32.72;17.98;;;2.30;82.80;;;;;;5072080;28;20102;-12
2023/01/12 07:21:18;;;;;;;31.60;16.87;;;2.40;83.00;;;;;;5071919;28;20523;-12
2023/01/12 07:23:44;;;;;;;46.78;22.30;;;2.40;83.10;;;;;;5071887;28;20249;-12
2023/01/12 07:26:10;;;;;;;32.90;15.65;;;2.50;83.00;;;;;;5072252;28;20078;-12
2023/01/12 07:28:37;;;;;;;29.77;16.60;;;2.60;82.90;;;;;;5072110;28;20083;-12
2023/01/12 07:31:05;;;;;;;26.55;16.20;;;2.70;82.90;;;;;;5072898;28;20029;-13
2023/01/12 07:33:33;;;;;;;27.15;15.57;;;2.80;82.90;;;;;;5076311;28;20056;-12
2023/01/12 07:36:00;;;;;;;24.83;13.23;;;2.90;82.90;;;;;;5075585;28;20036;-12
2023/01/12 07:38:30;;;;;;;23.02;13.57;;;3.10;82.90;;;;;;5075673;28;20029;-11
2023/01/12 07:41:00;;;;;;;23.45;12.82;;;3.20;82.70;;;;;;5075573;28;20032;-12
2023/01/12 07:43:26;;;;;;;21.77;13.02;;;3.30;82.30;;;;;;5075428;28;20017;-12
2023/01/12 07:45:54;;;;;;;19.23;11.20;;;3.40;82.00;;;;;;5075581;28;20438;-12
2023/01/12 07:48:21;;;;;;;25.02;14.38;;;3.50;81.80;;;;;;5075403;28;20056;-12
2023/01/12 07:50:47;;;;;;;20.23;11.52;;;3.50;81.90;;;;;;5075479;28;20067;-13
2023/01/12 07:53:13;;;;;;;19.75;12.27;;;3.60;81.90;;;;;;5075842;28;20048;-13
2023/01/12 07:55:42;;;;;;;16.80;10.93;;;3.70;81.80;;;;;;5074152;28;20028;-12
2023/01/12 07:58:08;;;;;;;18.23;12.70;;;3.70;81.80;;;;;;5075646;28;20031;-13
2023/01/12 08:00:35;;;;;;;24.95;14.85;;;3.80;82.00;;;;;;5075179;28;20032;-11
2023/01/12 08:03:11;;;;;;;26.90;17.15;;;3.80;81.80;;;;;;5074947;28;20043;-12
2023/01/12 08:05:37;;;;;;;22.33;13.48;;;3.90;81.60;;;;;;5075165;28;20036;-13
2023/01/12 08:08:05;;;;;;;20.50;11.50;;;3.90;81.60;;;;;;5075102;28;20024;-12
2023/01/12 08:10:31;;;;;;;26.65;14.45;;;4.00;81.40;;;;;;5075325;28;20029;-12
2023/01/12 08:12:57;;;;;;;33.08;16.45;;;4.10;81.20;;;;;;5074923;28;20047;-13
2023/01/12 08:15:26;;;;;;;25.58;14.38;;;4.10;81.20;;;;;;5074927;28;20060;-12
2023/01/12 08:17:59;;;;;;;21.98;13.90;;;4.20;81.30;;;;;;5074876;28;20032;-13
2023/01/12 08:20:33;;;;;;;25.45;14.50;;;4.30;81.10;;;;;;5074941;28;20610;-12
2023/01/12 08:23:08;;;;;;;24.13;13.97;;;4.40;81.10;;;;;;5075117;28;20107;-12
2023/01/12 08:25:43;;;;;;;22.90;12.43;;;4.40;80.80;;;;;;5075221;28;20107;-13
2023/01/12 08:28:15;;;;;;;24.05;13.85;;;4.40;80.70;;;;;;5075122;28;20154;-12
2023/01/12 08:30:44;;;;;;;20.98;12.63;;;4.50;80.60;;;;;;5074653;28;20342;-12
2023/01/12 08:33:10;;;;;;;22.52;13.57;;;4.50;80.80;;;;;;5074564;28;20481;-13
2023/01/12 08:35:37;;;;;;;21.92;13.18;;;4.60;80.90;;;;;;5074642;28;20036;-12
2023/01/12 08:38:02;;;;;;;25.00;14.23;;;4.70;80.50;;;;;;5074779;28;20091;-12
2023/01/12 08:41:31;;;;;;;23.02;13.02;;;4.80;80.50;;;;;;5074482;28;20028;-13
2023/01/12 08:44:00;;;;;;;23.15;13.63;;;4.90;80.50;;;;;;5073308;28;20050;-12
2023/01/12 08:46:06;;;;;;;20.75;12.77;;;5.10;80.60;;;;;;5075052;28;20040;-12
2023/01/12 08:48:37;;;;;;;23.00;13.10;;;5.40;80.50;;;;;;5074714;28;20029;-12
2023/01/12 08:51:04;;;;;;;23.95;13.02;;;5.60;80.20;;;;;;5074202;28;20025;-12
2023/01/12 08:53:31;;;;;;;18.25;11.80;;;5.80;80.10;;;;;;5074153;28;20119;-12
2023/01/12 08:55:57;;;;;;;20.42;10.90;;;6.00;79.60;;;;;;5074870;28;20031;-12
2023/01/12 08:58:22;;;;;;;16.48;10.50;;;6.20;79.40;;;;;;5074147;28;20048;-12
2023/01/12 09:00:48;;;;;;;20.40;10.23;;;6.30;79.10;;;;;;5073857;28;20016;-12
2023/01/12 09:03:17;;;;;;;17.80;10.77;;;6.50;78.90;;;;;;5073780;28;20033;-13
2023/01/12 09:05:44;;;;;;;19.23;10.35;;;6.60;78.80;;;;;;5074388;28;20020;-12
2023/01/12 09:08:10;;;;;;;16.23;9.85;;;6.90;79.00;;;;;;5073894;28;20025;-12
2023/01/12 09:10:36;;;;;;;18.25;9.98;;;7.20;78.80;;;;;;5074565;28;20056;-12
2023/01/12 09:13:02;;;;;;;13.88;8.32;;;7.40;78.50;;;;;;5073621;28;20032;-11
2023/01/12 09:15:28;;;;;;;17.92;10.55;;;7.70;78.50;;;;;;5074105;28;20484;-12
2023/01/12 09:17:54;;;;;;;17.77;9.80;;;7.90;78.00;;;;;;5074025;28;20115;-12
2023/01/12 09:20:21;;;;;;;17.70;10.48;;;8.00;77.40;;;;;;5072146;28;20117;-13
2023/01/12 09:22:47;;;;;;;16.48;9.85;;;8.10;76.70;;;;;;5073339;28;20025;-11
2023/01/12 09:25:13;;;;;;;18.35;11.45;;;8.10;76.40;;;;;;5074129;28;20034;-12
2023/01/12 09:27:39;;;;;;;19.58;12.38;;;8.00;76.30;;;;;;5073491;28;20187;-12
2023/01/12 09:30:06;;;;;;;20.60;12.07;;;8.00;76.40;;;;;;5073564;28;20048;-11
2023/01/12 09:32:32;;;;;;;22.40;11.68;;;8.00;76.60;;;;;;5073310;28;20032;-12
2023/01/12 09:34:58;;;;;;;20.33;13.68;;;8.00;76.70;;;;;;5073509;28;20033;-12
2023/01/12 09:37:25;;;;;;;28.35;19.90;;;7.90;76.70;;;;;;5073356;28;20075;-12
2023/01/12 09:39:51;;;;;;;29.08;20.45;;;7.90;76.50;;;;;;5073532;28;20158;-12
2023/01/12 09:48:09;;;;;;;17.33;10.25;;;7.90;76.60;;;;;;5073657;28;20063;-13
2023/01/12 09:50:54;;;;;;;15.43;9.75;;;8.00;76.60;;;;;;5073199;28;20017;-12
2023/01/12 09:53:25;;;;;;;17.83;9.05;;;7.90;76.40;;;;;;5073314;28;20032;-12
2023/01/12 09:56:07;;;;;;;14.40;8.77;;;8.00;76.20;;;;;;5073035;28;20058;-12
2023/01/12 09:58:50;;;;;;;15.43;8.88;;;8.00;76.00;;;;;;5072911;28;20476;-12
2023/01/12 10:01:18;;;;;;;15.18;9.73;;;8.10;76.00;;;;;;5073192;28;20025;-12
2023/01/12 10:03:44;;;;;;;13.45;8.80;;;8.20;76.00;;;;;;5072767;28;20076;-13
2023/01/12 10:06:18;;;;;;;16.08;10.32;;;8.20;76.00;;;;;;5072927;28;20082;-12
2023/01/12 10:08:50;;;;;;;15.90;8.95;;;8.30;76.00;;;;;;5072913;28;20489;-12
2023/01/12 10:11:24;;;;;;;17.02;9.95;;;8.40;75.80;;;;;;5073008;28;20024;-11
2023/01/12 10:14:12;;;;;;;14.25;8.75;;;8.60;75.70;;;;;;5072928;28;20542;-12
2023/01/12 10:17:00;;;;;;;13.70;8.48;;;8.80;75.50;;;;;;5072788;28;20064;-10
2023/01/12 10:19:26;;;;;;;21.55;12.35;;;8.90;75.30;;;;;;5072342;28;20025;-12
2023/01/12 10:21:53;;;;;;;16.10;9.65;;;9.10;74.90;;;;;;5072959;28;20107;-11
2023/01/12 10:24:23;;;;;;;18.17;9.40;;;9.20;74.40;;;;;;5072554;28;20050;-11
2023/01/12 10:26:58;;;;;;;17.13;10.20;;;9.40;74.30;;;;;;5072945;28;20028;-12
2023/01/12 10:29:25;;;;;;;17.02;9.52;;;9.60;74.20;;;;;;5072886;28;20427;-11
2023/01/12 10:31:51;;;;;;;13.60;9.13;;;9.70;73.80;;;;;;5072593;28;20020;-11
2023/01/12 10:34:17;;;;;;;14.85;9.07;;;9.90;73.50;;;;;;5072713;28;20035;-11
2023/01/12 10:36:48;;;;;;;14.38;8.57;;;9.90;72.80;;;;;;5071430;28;20036;-11
2023/01/12 10:39:32;;;;;;;15.55;9.25;;;10.00;72.70;;;;;;5072693;28;20436;-12
2023/01/12 10:45:23;;;;;;;15.57;8.93;;;9.90;72.30;;;;;;5072519;28;20155;-12
2023/01/12 10:47:52;;;;;;;16.58;9.45;;;10.00;72.50;;;;;;5072645;28;20028;-11
2023/01/12 10:50:20;;;;;;;15.65;9.45;;;10.00;72.20;;;;;;5072605;28;20039;-11
2023/01/12 10:52:47;;;;;;;14.65;8.63;;;10.10;72.50;;;;;;5072566;28;20115;-11
2023/01/12 10:55:27;;;;;;;13.25;8.55;;;10.10;72.20;;;;;;5072589;28;20024;-11
2023/01/12 10:57:54;;;;;;;12.48;8.13;;;10.20;71.70;;;;;;5072573;28;20112;-11
2023/01/12 11:00:26;;;;;;;14.27;8.18;;;10.20;71.70;;;;;;5072527;28;20085;-11
2023/01/12 11:02:52;;;;;;;12.90;8.40;;;10.30;71.40;;;;;;5072032;28;20024;-12
2023/01/12 11:05:37;;;;;;;14.15;9.07;;;10.30;71.20;;;;;;5072383;28;20036;-10
2023/01/12 11:08:21;;;;;;;15.43;9.40;;;10.40;71.50;;;;;;5076593;28;20029;-11
2023/01/12 11:10:48;;;;;;;15.90;9.82;;;10.40;70.70;;;;;;5076041;28;20433;-12
2023/01/12 11:13:35;;;;;;;19.50;10.32;;;10.40;71.20;;;;;;5076244;28;20025;-12
2023/01/12 11:16:20;;;;;;;12.30;8.25;;;10.50;71.20;;;;;;5076054;28;20051;-11
2023/01/12 11:18:57;;;;;;;16.23;9.80;;;10.50;71.70;;;;;;5076033;28;20413;-11
2023/01/12 11:21:28;;;;;;;14.90;9.10;;;10.60;71.50;;;;;;5075902;28;20040;-11
2023/01/12 11:24:02;;;;;;;15.63;8.68;;;10.70;71.70;;;;;;5076129;28;20468;-12
2023/01/12 11:26:43;;;;;;;16.85;10.20;;;10.70;71.80;;;;;;5076226;28;20025;-11
2023/01/12 11:29:47;;;;;;;18.60;8.85;;;10.80;71.50;;;;;;5075511;28;20029;-11
2023/01/12 11:32:15;;;;;;;;;;;10.90;71.50;;;;;;5076530;28;20025;-12
2023/01/12 11:35:09;;;;;;;14.40;8.95;;;10.80;71.20;;;;;;5075717;28;19909;-11
2023/01/12 11:37:39;;;;;;;12.68;8.05;;;10.90;71.20;;;;;;5064684;28;20070;-11
2023/01/12 11:40:30;;;;;;;12.52;8.35;;;10.70;71.40;;;;;;5075877;28;20024;-11
2023/01/12 11:46:27;;;;;;;16.13;10.30;;;10.70;71.50;;;;;;5075791;28;20085;-11
2023/01/12 11:49:00;;;;;;;16.98;10.90;;;10.60;71.40;;;;;;5075314;28;20020;-11
2023/01/12 11:51:26;;;;;;;17.48;10.15;;;10.50;71.40;;;;;;5075322;28;20032;-11
2023/01/12 11:53:53;;;;;;;13.32;8.52;;;10.40;71.80;;;;;;5074464;28;20112;-11
2023/01/12 11:56:41;;;;;;;18.60;12.00;;;10.40;72.30;;;;;;5075667;28;20028;-11
2023/01/12 11:59:36;;;;;;;19.48;10.90;;;10.50;72.50;;;;;;5075339;28;20037;-11
2023/01/12 12:02:20;;;;;;;16.98;10.38;;;10.60;72.30;;;;;;5075293;28;20029;-11
2023/01/12 12:05:19;;;;;;;15.05;9.93;;;10.70;71.80;;;;;;5075236;28;20063;-11
2023/01/12 12:08:05;;;;;;;13.85;9.40;;;10.80;71.40;;;;;;5075797;28;20090;-11
2023/01/12 12:10:56;;;;;;;19.55;10.40;;;10.80;71.20;;;;;;5075380;28;20028;-11
2023/01/12 12:13:36;;;;;;;19.30;11.48;;;10.90;71.30;;;;;;5075073;28;20032;-10
2023/01/12 12:16:33;;;;;;;19.20;11.60;;;10.90;71.30;;;;;;5074899;28;20487;-10
2023/01/12 12:19:21;;;;;;;16.27;10.65;;;10.90;71.40;;;;;;5073851;28;20131;-11
2023/01/12 12:21:54;;;;;;;16.02;10.23;;;10.90;71.40;;;;;;5074938;28;20044;-11
2023/01/12 12:24:36;;;;;;;16.67;10.80;;;10.90;71.40;;;;;;5074970;28;20063;-10
2023/01/12 12:27:10;;;;;;;16.92;10.70;;;10.90;71.60;;;;;;5075141;28;20484;-12
2023/01/12 12:29:36;;;;;;;;;;;10.90;71.80;;;;;;5075499;28;20488;-11
2023/01/12 12:32:13;;;;;;;16.27;10.27;;;10.90;71.40;;;;;;5074919;28;19904;-12
2023/01/12 12:35:08;;;;;;;15.70;10.13;;;10.90;71.40;;;;;;5073380;28;20396;-10
2023/01/12 12:37:52;;;;;;;14.95;9.15;;;11.10;71.30;;;;;;5074771;28;20020;-10
2023/01/12 12:40:24;;;;;;;16.88;10.45;;;11.10;71.00;;;;;;5074837;28;20051;-11
2023/01/12 12:46:16;;;;;;;15.18;9.15;;;11.20;70.90;;;;;;5074774;28;20537;-11
2023/01/12 12:48:46;;;;;;;18.60;11.82;;;11.30;70.90;;;;;;5074566;28;20400;-11
2023/01/12 12:51:13;;;;;;;19.17;12.25;;;11.40;70.80;;;;;;5074257;28;20389;-11
2023/01/12 12:53:45;;;;;;;22.70;13.10;;;11.40;70.80;;;;;;5074531;28;20023;-11
2023/01/12 12:56:14;;;;;;;17.20;11.65;;;11.30;70.60;;;;;;5074337;28;20468;-11
2023/01/12 12:58:46;;;;;;;17.85;11.52;;;11.20;70.90;;;;;;5074092;28;20116;-11
2023/01/12 13:01:23;;;;;;;17.60;11.60;;;11.20;71.30;;;;;;5074444;28;20036;-11
2023/01/12 13:03:57;;;;;;;20.85;11.80;;;11.20;71.60;;;;;;5074620;28;20530;-10
2023/01/12 13:06:34;;;;;;;19.17;11.38;;;11.10;71.70;;;;;;5074181;28;20034;-11
2023/01/12 13:09:04;;;;;;;17.05;10.52;;;11.00;71.70;;;;;;5073820;28;20032;-11
2023/01/12 13:11:59;;;;;;;19.40;12.13;;;10.90;71.60;;;;;;5074275;28;20480;-11
2023/01/12 13:14:28;;;;;;;20.80;12.25;;;10.80;71.80;;;;;;5074201;28;20032;-11
2023/01/12 13:16:56;;;;;;;22.38;13.15;;;10.70;71.90;;;;;;5073744;28;20012;-10
2023/01/12 13:19:35;;;;;;;21.98;13.55;;;10.60;72.30;;;;;;5073874;28;20028;-11
2023/01/12 13:22:31;;;;;;;24.40;14.07;;;10.60;72.50;;;;;;5073971;28;20037;-11
2023/01/12 13:25:21;;;;;;;22.05;14.50;;;10.50;72.70;;;;;;5073451;28;20033;-11
2023/01/12 13:28:01;;;;;;;18.75;12.38;;;10.50;72.80;;;;;;5074036;28;20029;-11
2023/01/12 13:30:30;;;;;;;21.85;13.57;;;10.60;73.00;;;;;;5071926;28;20036;-10
2023/01/12 13:33:16;;;;;;;21.85;14.45;;;10.60;73.00;;;;;;5073598;28;20017;-10
2023/01/12 13:35:45;;;;;;;21.98;12.77;;;10.60;73.00;;;;;;5073482;28;20459;-11
2023/01/12 13:38:32;;;;;;;36.95;19.98;;;10.60;72.90;;;;;;5073379;28;20028;-10
2023/01/12 13:43:13;;;;;;;54.80;25.52;;;10.70;72.90;;;;;;5073305;28;20526;-11
2023/01/12 13:43:59;;;;;;;28.85;17.38;;;10.70;72.80;;;;;;5073311;28;20388;-11
2023/01/12 13:46:35;;;;;;;28.38;15.98;;;10.70;72.80;;;;;;5073164;28;20020;-10
2023/01/12 13:49:02;;;;;;;79.82;18.05;;;10.70;72.80;;;;;;5073284;28;20059;-10